QFA37 YSSY-WSSS
Flight info
| Callsign | QFA37 |
|---|---|
| Flight time | N/A |
| Altitude | 36000 |
| Route | KADOM1/34L KADOM A576 PKS G222 AYE/N0489F380 G222 SAPDA A585 IPKON/N0487F400 A585 PLB G579 SJ |
| Aircraft | A35K/H-SDE2E3GHIJ3J4J5LM1ORWXY/LB1D1 |
Departure
| Time | N/A |
|---|---|
| Airport | Sydney Kingsford Smith International Airport (YSSY) |
Arrival
| Time | 2026-05-01 12:29 |
|---|---|
| Airport | Singapore Changi Airport (WSSS) |
| Time | Latitude | Longitude | Altitude | Speed | Heading |
|---|---|---|---|---|---|
| 2026-05-01 09:42 | -26.45330 | 134.90583 | 36183 ft | 465 kts | 303° |
| 2026-05-01 09:42 | -26.43520 | 134.87540 | 35157 ft | 472 kts | 300° |
| 2026-05-01 09:42 | -26.40037 | 134.81724 | 35450 ft | 435 kts | 299° |
| 2026-05-01 09:43 | -26.36705 | 134.76075 | 35467 ft | 436 kts | 299° |
| 2026-05-01 09:43 | -26.33384 | 134.70444 | 35547 ft | 433 kts | 299° |
| 2026-05-01 09:44 | -26.28433 | 134.62091 | 35690 ft | 431 kts | 299° |
| 2026-05-01 09:45 | -26.25121 | 134.56519 | 35794 ft | 431 kts | 299° |
| 2026-05-01 09:45 | -26.20144 | 134.48162 | 35936 ft | 430 kts | 299° |
| 2026-05-01 09:46 | -26.09869 | 134.30950 | 35986 ft | 430 kts | 299° |
| 2026-05-01 09:46 | -25.96578 | 134.08784 | 35988 ft | 430 kts | 299° |
| 2026-05-01 09:47 | -25.83250 | 133.86662 | 36002 ft | 431 kts | 299° |
| 2026-05-01 09:47 | -25.69854 | 133.64535 | 35997 ft | 431 kts | 299° |
| 2026-05-01 09:48 | -25.56432 | 133.42467 | 35994 ft | 432 kts | 299° |
| 2026-05-01 09:48 | -25.42956 | 133.20416 | 35990 ft | 432 kts | 299° |
| 2026-05-01 09:49 | -25.29510 | 132.98516 | 35990 ft | 433 kts | 299° |
| 2026-05-01 09:49 | -25.15928 | 132.76497 | 35990 ft | 433 kts | 299° |
| 2026-05-01 09:50 | -25.02324 | 132.54544 | 35992 ft | 434 kts | 300° |
| 2026-05-01 09:50 | -24.88633 | 132.32552 | 35996 ft | 434 kts | 300° |
| 2026-05-01 09:51 | -24.74905 | 132.10597 | 35996 ft | 435 kts | 300° |
| 2026-05-01 09:51 | -24.61192 | 131.88768 | 36003 ft | 436 kts | 300° |
| 2026-05-01 09:52 | -24.47342 | 131.66820 | 36001 ft | 437 kts | 300° |
| 2026-05-01 09:52 | -24.33472 | 131.44939 | 36002 ft | 437 kts | 300° |
| 2026-05-01 09:53 | -24.19519 | 131.23025 | 36004 ft | 438 kts | 300° |
| 2026-05-01 09:53 | -24.05524 | 131.01140 | 36005 ft | 439 kts | 300° |
| 2026-05-01 09:54 | -23.91574 | 130.79424 | 36006 ft | 439 kts | 300° |
| 2026-05-01 09:54 | -23.77478 | 130.57575 | 36000 ft | 440 kts | 300° |
| 2026-05-01 09:55 | -23.63268 | 130.35645 | 35997 ft | 441 kts | 300° |
| 2026-05-01 09:55 | -23.49130 | 130.13920 | 35997 ft | 442 kts | 301° |
| 2026-05-01 09:56 | -23.34831 | 129.92041 | 35987 ft | 444 kts | 301° |
| 2026-05-01 09:56 | -23.20448 | 129.70127 | 35988 ft | 444 kts | 301° |
| 2026-05-01 09:57 | -23.06104 | 129.48366 | 35989 ft | 446 kts | 301° |
| 2026-05-01 09:57 | -22.91600 | 129.26455 | 35983 ft | 447 kts | 301° |
| 2026-05-01 09:58 | -22.77053 | 129.04572 | 35980 ft | 448 kts | 301° |
| 2026-05-01 09:58 | -22.62423 | 128.82655 | 35972 ft | 449 kts | 301° |
| 2026-05-01 09:59 | -22.47701 | 128.60694 | 35973 ft | 450 kts | 301° |
| 2026-05-01 09:59 | -22.33022 | 128.38886 | 35970 ft | 452 kts | 301° |
| 2026-05-01 10:00 | -22.18171 | 128.16912 | 35968 ft | 453 kts | 301° |
| 2026-05-01 10:00 | -22.05788 | 127.98659 | 35957 ft | 454 kts | 301° |
| 2026-05-01 10:01 | -21.88377 | 127.73100 | 35967 ft | 455 kts | 301° |
| 2026-05-01 10:01 | -21.75791 | 127.54697 | 35962 ft | 455 kts | 301° |
| 2026-05-01 10:02 | -21.60856 | 127.32940 | 35960 ft | 455 kts | 302° |
| 2026-05-01 10:02 | -21.45765 | 127.11043 | 35962 ft | 456 kts | 302° |
| 2026-05-01 10:03 | -21.30597 | 126.89121 | 35960 ft | 457 kts | 302° |
| 2026-05-01 10:03 | -21.15377 | 126.67212 | 35960 ft | 458 kts | 302° |
| 2026-05-01 10:04 | -21.00086 | 126.45285 | 35956 ft | 459 kts | 302° |
| 2026-05-01 10:04 | -20.84839 | 126.23506 | 35953 ft | 461 kts | 302° |
| 2026-05-01 10:05 | -20.69398 | 126.01535 | 35952 ft | 462 kts | 302° |
| 2026-05-01 10:05 | -20.53905 | 125.79572 | 35948 ft | 463 kts | 303° |
| 2026-05-01 10:06 | -20.38330 | 125.57579 | 35945 ft | 465 kts | 303° |
| 2026-05-01 10:06 | -20.22661 | 125.35539 | 35944 ft | 466 kts | 303° |
| 2026-05-01 10:07 | -20.07001 | 125.13592 | 35938 ft | 468 kts | 303° |
| 2026-05-01 10:07 | -19.91181 | 124.91503 | 35938 ft | 469 kts | 303° |
| 2026-05-01 10:08 | -19.67438 | 124.58505 | 35937 ft | 471 kts | 303° |
| 2026-05-01 10:09 | -19.51490 | 124.36442 | 35931 ft | 472 kts | 303° |
| 2026-05-01 10:09 | -19.35450 | 124.14333 | 35938 ft | 473 kts | 304° |
| 2026-05-01 10:10 | -19.19375 | 123.92256 | 35925 ft | 474 kts | 304° |
| 2026-05-01 10:10 | -18.95205 | 123.59210 | 35928 ft | 475 kts | 304° |
| 2026-05-01 10:11 | -18.78960 | 123.37099 | 35928 ft | 477 kts | 304° |
| 2026-05-01 10:11 | -18.62663 | 123.14994 | 35930 ft | 477 kts | 304° |
| 2026-05-01 10:12 | -18.49226 | 122.91159 | 35934 ft | 475 kts | 296° |
| 2026-05-01 10:13 | -18.30118 | 122.54515 | 35939 ft | 476 kts | 296° |
| 2026-05-01 10:13 | -18.17287 | 122.30048 | 35941 ft | 477 kts | 296° |
| 2026-05-01 10:14 | -17.97983 | 121.93417 | 35943 ft | 478 kts | 296° |
| 2026-05-01 10:14 | -17.85116 | 121.69119 | 35945 ft | 479 kts | 296° |
| 2026-05-01 10:15 | -17.72116 | 121.44660 | 35953 ft | 480 kts | 296° |
| 2026-05-01 10:15 | -17.59068 | 121.20207 | 35952 ft | 481 kts | 296° |
| 2026-05-01 10:16 | -17.45940 | 120.95693 | 35959 ft | 481 kts | 296° |
| 2026-05-01 10:17 | -17.26212 | 120.59027 | 35958 ft | 482 kts | 297° |
| 2026-05-01 10:17 | -17.06472 | 120.22539 | 35973 ft | 483 kts | 297° |
| 2026-05-01 10:18 | -16.86517 | 119.85853 | 35948 ft | 484 kts | 297° |
| 2026-05-01 10:19 | -16.73153 | 119.61395 | 35938 ft | 485 kts | 297° |
| 2026-05-01 10:19 | -16.59723 | 119.36904 | 35953 ft | 486 kts | 297° |
| 2026-05-01 10:20 | -16.39559 | 119.00292 | 35951 ft | 487 kts | 297° |
| 2026-05-01 10:20 | -16.26026 | 118.75830 | 35949 ft | 486 kts | 297° |
| 2026-05-01 10:21 | -16.05762 | 118.39352 | 35947 ft | 485 kts | 297° |
| 2026-05-01 10:22 | -15.85406 | 118.02896 | 35945 ft | 486 kts | 297° |
| 2026-05-01 10:23 | -15.64988 | 117.66511 | 35946 ft | 487 kts | 298° |
| 2026-05-01 10:23 | -15.44535 | 117.30243 | 35942 ft | 487 kts | 298° |
| 2026-05-01 10:24 | -15.17017 | 116.81724 | 35947 ft | 488 kts | 298° |
| 2026-05-01 10:25 | -14.89355 | 116.33258 | 35941 ft | 490 kts | 298° |
| 2026-05-01 10:26 | -14.75538 | 116.09164 | 35940 ft | 490 kts | 298° |
| 2026-05-01 10:27 | -14.47594 | 115.60659 | 35940 ft | 492 kts | 298° |
| 2026-05-01 10:28 | -14.26466 | 115.24181 | 35933 ft | 494 kts | 299° |
| 2026-05-01 10:28 | -14.05337 | 114.87863 | 35928 ft | 494 kts | 299° |
| 2026-05-01 10:29 | -13.84091 | 114.51506 | 35923 ft | 494 kts | 299° |
| 2026-05-01 10:30 | -13.55566 | 114.02939 | 35920 ft | 499 kts | 299° |
| 2026-05-01 10:31 | -13.26807 | 113.54251 | 35916 ft | 500 kts | 300° |
| 2026-05-01 10:32 | -13.05074 | 113.17638 | 35915 ft | 501 kts | 300° |
| 2026-05-01 10:33 | -12.76065 | 112.69002 | 35914 ft | 502 kts | 300° |
| 2026-05-01 10:34 | -12.54208 | 112.32525 | 35908 ft | 502 kts | 300° |
| 2026-05-01 10:34 | -12.39553 | 112.08151 | 35907 ft | 502 kts | 301° |
| 2026-05-01 10:35 | -12.29829 | 111.92014 | 35906 ft | 502 kts | 301° |
| 2026-05-01 10:35 | -12.26169 | 111.85946 | 35905 ft | 502 kts | 301° |
| 2026-05-01 10:36 | -12.20676 | 111.76837 | 35908 ft | 500 kts | 301° |
| 2026-05-01 10:37 | -12.17049 | 111.70834 | 35904 ft | 498 kts | 302° |
| 2026-05-01 10:37 | -12.11583 | 111.61804 | 35904 ft | 498 kts | 302° |
| 2026-05-01 10:38 | -12.07940 | 111.55785 | 35905 ft | 498 kts | 302° |
| 2026-05-01 10:38 | -12.04298 | 111.49771 | 35904 ft | 498 kts | 302° |
| 2026-05-01 10:39 | -12.00478 | 111.43878 | 35905 ft | 498 kts | 309° |
| 2026-05-01 10:39 | -11.95602 | 111.38915 | 35903 ft | 498 kts | 319° |
| 2026-05-01 10:40 | -11.90198 | 111.34464 | 35904 ft | 498 kts | 321° |
| 2026-05-01 10:40 | -11.84712 | 111.30134 | 35901 ft | 498 kts | 321° |
| 2026-05-01 10:41 | -11.79257 | 111.25769 | 35904 ft | 498 kts | 321° |
| 2026-05-01 10:42 | -11.71112 | 111.19154 | 35901 ft | 498 kts | 321° |
| 2026-05-01 10:42 | -11.65690 | 111.14741 | 35901 ft | 498 kts | 321° |
| 2026-05-01 10:43 | -11.60308 | 111.10363 | 35900 ft | 498 kts | 321° |
| 2026-05-01 10:43 | -11.54885 | 111.05957 | 35900 ft | 498 kts | 321° |
| 2026-05-01 10:44 | -11.49462 | 111.01554 | 35898 ft | 498 kts | 321° |
| 2026-05-01 10:44 | -11.44040 | 110.97156 | 35900 ft | 498 kts | 321° |
| 2026-05-01 10:45 | -11.38616 | 110.92757 | 35897 ft | 498 kts | 321° |
| 2026-05-01 10:45 | -11.33192 | 110.88360 | 35896 ft | 498 kts | 321° |
| 2026-05-01 10:46 | -11.27766 | 110.83964 | 35898 ft | 498 kts | 321° |
| 2026-05-01 10:46 | -11.22379 | 110.79601 | 35895 ft | 498 kts | 321° |
| 2026-05-01 10:47 | -11.16942 | 110.75200 | 35893 ft | 498 kts | 321° |
| 2026-05-01 10:47 | -11.11534 | 110.70825 | 35893 ft | 498 kts | 321° |
| 2026-05-01 10:48 | -11.06105 | 110.66435 | 35895 ft | 498 kts | 321° |
| 2026-05-01 10:48 | -11.01559 | 110.62761 | 35894 ft | 498 kts | 321° |
| 2026-05-01 10:49 | -10.96136 | 110.58379 | 35894 ft | 498 kts | 321° |
| 2026-05-01 10:49 | -10.90720 | 110.54005 | 35895 ft | 498 kts | 321° |
| 2026-05-01 10:50 | -10.85286 | 110.49619 | 35895 ft | 498 kts | 321° |
| 2026-05-01 10:50 | -10.79842 | 110.45227 | 35893 ft | 499 kts | 321° |
| 2026-05-01 10:51 | -10.74439 | 110.40871 | 35892 ft | 499 kts | 321° |
| 2026-05-01 10:51 | -10.68990 | 110.36479 | 35892 ft | 499 kts | 321° |
| 2026-05-01 10:52 | -10.63531 | 110.32081 | 35892 ft | 500 kts | 321° |
| 2026-05-01 10:52 | -10.58081 | 110.27692 | 35889 ft | 500 kts | 321° |
| 2026-05-01 10:53 | -10.52629 | 110.23304 | 35888 ft | 500 kts | 321° |
| 2026-05-01 10:53 | -10.47165 | 110.18908 | 35890 ft | 501 kts | 321° |
| 2026-05-01 10:54 | -10.41736 | 110.14541 | 35887 ft | 501 kts | 321° |
| 2026-05-01 10:54 | -10.36267 | 110.10145 | 35887 ft | 501 kts | 321° |
| 2026-05-01 10:55 | -10.30798 | 110.05752 | 35886 ft | 501 kts | 321° |
| 2026-05-01 10:55 | -10.25326 | 110.01359 | 35886 ft | 501 kts | 321° |
| 2026-05-01 10:56 | -10.19850 | 109.96964 | 35885 ft | 501 kts | 321° |
| 2026-05-01 10:56 | -10.14411 | 109.92600 | 35887 ft | 501 kts | 321° |
| 2026-05-01 10:57 | -10.08926 | 109.88201 | 35886 ft | 502 kts | 321° |
| 2026-05-01 10:57 | -10.03443 | 109.83805 | 35885 ft | 502 kts | 321° |
| 2026-05-01 10:58 | -9.97948 | 109.79403 | 35884 ft | 503 kts | 321° |
| 2026-05-01 10:58 | -9.92456 | 109.75004 | 35885 ft | 503 kts | 321° |
| 2026-05-01 10:59 | -9.86965 | 109.70608 | 35885 ft | 503 kts | 321° |
| 2026-05-01 10:59 | -9.81494 | 109.66231 | 35885 ft | 503 kts | 322° |
| 2026-05-01 11:00 | -9.75996 | 109.61834 | 35885 ft | 503 kts | 322° |
| 2026-05-01 11:00 | -9.70498 | 109.57438 | 35885 ft | 503 kts | 322° |
| 2026-05-01 11:01 | -9.65003 | 109.53047 | 35885 ft | 504 kts | 322° |
| 2026-05-01 11:01 | -9.59492 | 109.48645 | 35882 ft | 504 kts | 322° |
| 2026-05-01 11:02 | -9.53989 | 109.44251 | 35884 ft | 504 kts | 322° |
| 2026-05-01 11:02 | -9.48477 | 109.39851 | 35884 ft | 504 kts | 322° |
| 2026-05-01 11:03 | -9.42962 | 109.35452 | 35887 ft | 504 kts | 322° |
| 2026-05-01 11:03 | -9.37450 | 109.31057 | 35886 ft | 504 kts | 322° |
| 2026-05-01 11:04 | -9.31936 | 109.26662 | 35885 ft | 505 kts | 322° |
| 2026-05-01 11:04 | -9.26390 | 109.22270 | 35883 ft | 505 kts | 323° |
| 2026-05-01 11:05 | -9.20512 | 109.18436 | 35884 ft | 506 kts | 329° |
| 2026-05-01 11:05 | -9.14425 | 109.14847 | 35884 ft | 506 kts | 330° |
| 2026-05-01 11:06 | -9.08305 | 109.11310 | 35883 ft | 507 kts | 330° |
| 2026-05-01 11:06 | -9.02188 | 109.07754 | 35880 ft | 507 kts | 330° |
| 2026-05-01 11:07 | -8.93031 | 109.02398 | 35884 ft | 508 kts | 330° |
| 2026-05-01 11:07 | -8.86904 | 108.98810 | 35885 ft | 508 kts | 330° |
| 2026-05-01 11:08 | -8.80765 | 108.95217 | 35886 ft | 509 kts | 330° |
| 2026-05-01 11:09 | -8.71581 | 108.89846 | 35883 ft | 508 kts | 330° |
| 2026-05-01 11:09 | -8.65494 | 108.86289 | 35889 ft | 508 kts | 330° |
| 2026-05-01 11:10 | -8.56299 | 108.80917 | 35886 ft | 508 kts | 330° |
| 2026-05-01 11:10 | -8.50167 | 108.77337 | 35884 ft | 508 kts | 330° |
| 2026-05-01 11:11 | -8.44075 | 108.73781 | 35887 ft | 509 kts | 330° |
| 2026-05-01 11:11 | -8.37949 | 108.70206 | 35884 ft | 509 kts | 330° |
| 2026-05-01 11:12 | -8.31813 | 108.66627 | 35888 ft | 509 kts | 330° |
| 2026-05-01 11:12 | -8.25681 | 108.63052 | 35887 ft | 509 kts | 330° |
| 2026-05-01 11:13 | -8.19540 | 108.59472 | 35885 ft | 509 kts | 330° |
| 2026-05-01 11:13 | -8.13393 | 108.55891 | 35888 ft | 510 kts | 330° |
| 2026-05-01 11:14 | -8.07251 | 108.52313 | 35887 ft | 510 kts | 330° |
| 2026-05-01 11:14 | -8.01101 | 108.48732 | 35888 ft | 510 kts | 330° |
| 2026-05-01 11:15 | -7.94996 | 108.45180 | 35892 ft | 510 kts | 330° |
| 2026-05-01 11:15 | -7.88840 | 108.41598 | 35880 ft | 510 kts | 330° |
| 2026-05-01 11:16 | -7.82679 | 108.38015 | 35882 ft | 511 kts | 330° |
| 2026-05-01 11:16 | -7.76512 | 108.34428 | 35887 ft | 511 kts | 330° |
| 2026-05-01 11:17 | -7.70385 | 108.30868 | 35893 ft | 512 kts | 330° |
| 2026-05-01 11:17 | -7.64211 | 108.27279 | 35903 ft | 512 kts | 330° |
| 2026-05-01 11:18 | -7.58023 | 108.23684 | 35908 ft | 513 kts | 330° |
| 2026-05-01 11:18 | -7.51837 | 108.20093 | 35909 ft | 513 kts | 331° |
| 2026-05-01 11:19 | -7.45646 | 108.16503 | 35918 ft | 513 kts | 331° |
| 2026-05-01 11:19 | -7.39511 | 108.12943 | 35925 ft | 513 kts | 331° |
| 2026-05-01 11:20 | -7.33332 | 108.09356 | 35930 ft | 512 kts | 331° |
| 2026-05-01 11:20 | -7.27147 | 108.05762 | 35932 ft | 512 kts | 331° |
| 2026-05-01 11:21 | -7.20973 | 108.02181 | 35938 ft | 512 kts | 331° |
| 2026-05-01 11:21 | -7.14784 | 107.98600 | 35942 ft | 512 kts | 331° |
| 2026-05-01 11:22 | -7.08598 | 107.95023 | 35935 ft | 513 kts | 331° |
| 2026-05-01 11:22 | -7.02445 | 107.91461 | 35932 ft | 513 kts | 331° |
| 2026-05-01 11:23 | -6.96257 | 107.87876 | 35928 ft | 513 kts | 331° |
| 2026-05-01 11:23 | -6.90061 | 107.84289 | 35919 ft | 514 kts | 331° |
| 2026-05-01 11:24 | -6.83927 | 107.80740 | 35914 ft | 514 kts | 331° |
| 2026-05-01 11:25 | -6.74559 | 107.75322 | 35903 ft | 514 kts | 331° |
| 2026-05-01 11:25 | -6.65295 | 107.69967 | 35894 ft | 514 kts | 331° |
| 2026-05-01 11:26 | -6.55981 | 107.64584 | 35888 ft | 514 kts | 331° |
| 2026-05-01 11:27 | -6.49768 | 107.60995 | 35888 ft | 515 kts | 331° |
| 2026-05-01 11:27 | -6.43559 | 107.57409 | 35877 ft | 515 kts | 331° |
| 2026-05-01 11:28 | -6.37340 | 107.53819 | 35868 ft | 515 kts | 331° |
| 2026-05-01 11:28 | -6.31155 | 107.50248 | 35867 ft | 515 kts | 331° |
| 2026-05-01 11:29 | -6.21832 | 107.44869 | 35864 ft | 515 kts | 331° |
| 2026-05-01 11:30 | -6.12511 | 107.39493 | 35860 ft | 515 kts | 331° |
| 2026-05-01 11:30 | -6.06291 | 107.35907 | 35856 ft | 515 kts | 331° |
| 2026-05-01 11:31 | -6.00103 | 107.32341 | 35853 ft | 515 kts | 331° |
| 2026-05-01 11:31 | -5.92111 | 107.27736 | 35847 ft | 515 kts | 331° |
| 2026-05-01 11:32 | -5.79685 | 107.20579 | 35847 ft | 514 kts | 331° |
| 2026-05-01 11:32 | -5.67269 | 107.13431 | 35847 ft | 514 kts | 331° |
| 2026-05-01 11:33 | -5.54841 | 107.06281 | 35851 ft | 514 kts | 331° |
| 2026-05-01 11:33 | -5.42425 | 106.99141 | 35848 ft | 514 kts | 331° |
| 2026-05-01 11:34 | -5.29994 | 106.91995 | 35850 ft | 514 kts | 331° |
| 2026-05-01 11:34 | -5.17647 | 106.84901 | 35853 ft | 514 kts | 331° |
| 2026-05-01 11:35 | -5.05220 | 106.77764 | 35851 ft | 514 kts | 331° |
| 2026-05-01 11:35 | -4.92789 | 106.70629 | 35850 ft | 515 kts | 331° |
| 2026-05-01 11:36 | -4.82424 | 106.64681 | 35852 ft | 515 kts | 331° |
| 2026-05-01 11:36 | -4.67950 | 106.56379 | 35850 ft | 515 kts | 331° |
| 2026-05-01 11:37 | -4.57519 | 106.50399 | 35852 ft | 515 kts | 331° |
| 2026-05-01 11:37 | -4.45082 | 106.43271 | 35849 ft | 514 kts | 331° |
| 2026-05-01 11:38 | -4.32736 | 106.36198 | 35850 ft | 514 kts | 331° |
| 2026-05-01 11:38 | -4.20302 | 106.29077 | 35852 ft | 514 kts | 331° |
| 2026-05-01 11:39 | -4.07863 | 106.21956 | 35848 ft | 514 kts | 331° |
| 2026-05-01 11:39 | -3.95425 | 106.14838 | 35850 ft | 515 kts | 331° |
| 2026-05-01 11:40 | -3.83062 | 106.07766 | 35850 ft | 515 kts | 331° |
| 2026-05-01 11:40 | -3.70605 | 106.00642 | 35847 ft | 515 kts | 331° |
| 2026-05-01 11:41 | -3.58141 | 105.93517 | 35844 ft | 516 kts | 331° |
| 2026-05-01 11:41 | -3.45663 | 105.86386 | 35841 ft | 516 kts | 331° |
| 2026-05-01 11:42 | -3.33186 | 105.79257 | 35835 ft | 516 kts | 331° |
| 2026-05-01 11:42 | -3.20695 | 105.72123 | 35833 ft | 516 kts | 332° |
| 2026-05-01 11:43 | -3.08204 | 105.64991 | 35829 ft | 517 kts | 332° |
| 2026-05-01 11:43 | -2.97812 | 105.59059 | 35828 ft | 517 kts | 332° |
| 2026-05-01 11:44 | -2.88438 | 105.53709 | 35831 ft | 517 kts | 332° |
| 2026-05-01 11:44 | -2.82193 | 105.50146 | 35834 ft | 517 kts | 332° |
| 2026-05-01 11:45 | -2.75942 | 105.46579 | 35831 ft | 517 kts | 332° |
| 2026-05-01 11:45 | -2.69689 | 105.43012 | 35832 ft | 517 kts | 332° |
| 2026-05-01 11:46 | -2.63435 | 105.39444 | 35835 ft | 517 kts | 332° |
| 2026-05-01 11:46 | -2.57222 | 105.35901 | 35838 ft | 517 kts | 332° |
| 2026-05-01 11:47 | -2.50967 | 105.32334 | 35840 ft | 517 kts | 332° |
| 2026-05-01 11:47 | -2.44710 | 105.28766 | 35844 ft | 517 kts | 332° |
| 2026-05-01 11:48 | -2.38460 | 105.25203 | 35846 ft | 517 kts | 331° |
| 2026-05-01 11:48 | -2.32194 | 105.21631 | 35854 ft | 517 kts | 331° |
| 2026-05-01 11:49 | -2.25936 | 105.18063 | 35853 ft | 517 kts | 331° |
| 2026-05-01 11:49 | -2.19712 | 105.14515 | 35854 ft | 517 kts | 331° |
| 2026-05-01 11:50 | -2.09066 | 105.08448 | 35861 ft | 517 kts | 331° |
| 2026-05-01 11:50 | -1.96553 | 105.01318 | 35858 ft | 517 kts | 331° |
| 2026-05-01 11:51 | -1.84051 | 104.94195 | 35863 ft | 517 kts | 332° |
| 2026-05-01 11:51 | -1.71535 | 104.87066 | 35860 ft | 517 kts | 332° |
| 2026-05-01 11:52 | -1.59090 | 104.79978 | 35860 ft | 517 kts | 332° |
| 2026-05-01 11:52 | -1.47408 | 104.71766 | 35862 ft | 522 kts | 306° |
| 2026-05-01 11:53 | -1.44718 | 104.65028 | 35862 ft | 526 kts | 283° |
| 2026-05-01 11:53 | -1.43437 | 104.57822 | 35862 ft | 527 kts | 280° |
| 2026-05-01 11:53 | -1.41714 | 104.48254 | 35856 ft | 525 kts | 293° |
| 2026-05-01 11:54 | -1.38531 | 104.43342 | 36075 ft | 511 kts | 318° |
| 2026-05-01 11:54 | -1.35767 | 104.41143 | 36385 ft | 510 kts | 329° |
| 2026-05-01 11:54 | -1.32580 | 104.39577 | 36078 ft | 513 kts | 342° |
| 2026-05-01 11:54 | -1.29100 | 104.38820 | 35887 ft | 510 kts | 355° |
| 2026-05-01 11:55 | -1.22001 | 104.38540 | 35860 ft | 511 kts | 1° |
| 2026-05-01 11:55 | -1.15034 | 104.39639 | 35862 ft | 507 kts | 18° |
| 2026-05-01 11:56 | -1.08351 | 104.41915 | 35862 ft | 507 kts | 20° |
| 2026-05-01 11:56 | -1.01738 | 104.44243 | 35863 ft | 507 kts | 20° |
| 2026-05-01 11:57 | -0.95082 | 104.46599 | 35859 ft | 507 kts | 24° |
| 2026-05-01 11:57 | -0.92015 | 104.48342 | 35859 ft | 505 kts | 38° |
| 2026-05-01 11:57 | -0.89524 | 104.50760 | 35861 ft | 504 kts | 52° |
| 2026-05-01 11:58 | -0.87701 | 104.53760 | 35864 ft | 503 kts | 66° |
| 2026-05-01 11:58 | -0.86705 | 104.57093 | 35862 ft | 504 kts | 81° |
| 2026-05-01 11:58 | -0.87346 | 104.64033 | 35860 ft | 507 kts | 109° |
| 2026-05-01 11:59 | -0.88950 | 104.67169 | 35861 ft | 510 kts | 123° |
| 2026-05-01 11:59 | -0.91306 | 104.69827 | 35863 ft | 512 kts | 137° |
| 2026-05-01 11:59 | -0.94257 | 104.71826 | 35862 ft | 515 kts | 152° |
| 2026-05-01 12:00 | -1.01188 | 104.73423 | 35860 ft | 522 kts | 180° |
| 2026-05-01 12:00 | -1.04794 | 104.72917 | 35861 ft | 525 kts | 194° |
| 2026-05-01 12:00 | -1.11146 | 104.69402 | 35860 ft | 529 kts | 223° |
| 2026-05-01 12:01 | -1.13516 | 104.66598 | 35860 ft | 529 kts | 237° |
| 2026-05-01 12:01 | -1.15147 | 104.63299 | 35862 ft | 529 kts | 251° |
| 2026-05-01 12:01 | -1.15951 | 104.59715 | 35864 ft | 528 kts | 264° |
| 2026-05-01 12:02 | -1.16210 | 104.52427 | 35864 ft | 528 kts | 270° |
| 2026-05-01 12:02 | -1.16261 | 104.45082 | 35862 ft | 528 kts | 270° |
| 2026-05-01 12:03 | -1.16201 | 104.37732 | 35863 ft | 528 kts | 275° |
| 2026-05-01 12:03 | -1.14693 | 104.30598 | 35866 ft | 525 kts | 292° |
| 2026-05-01 12:04 | -1.11092 | 104.24311 | 35868 ft | 521 kts | 311° |
| 2026-05-01 12:04 | -1.05696 | 104.19558 | 35863 ft | 516 kts | 329° |
| 2026-05-01 12:05 | -0.99143 | 104.16899 | 35868 ft | 511 kts | 349° |
| 2026-05-01 12:05 | -0.88619 | 104.15297 | 35866 ft | 510 kts | 355° |
| 2026-05-01 12:06 | -0.81554 | 104.14613 | 35866 ft | 509 kts | 356° |
| 2026-05-01 12:06 | -0.74507 | 104.14011 | 35864 ft | 508 kts | 356° |
| 2026-05-01 12:07 | -0.67492 | 104.13409 | 35866 ft | 509 kts | 356° |
| 2026-05-01 12:07 | -0.60435 | 104.12789 | 35868 ft | 509 kts | 356° |
| 2026-05-01 12:08 | -0.53371 | 104.12162 | 35867 ft | 509 kts | 356° |
| 2026-05-01 12:08 | -0.46312 | 104.11535 | 35756 ft | 509 kts | 356° |
| 2026-05-01 12:09 | -0.42800 | 104.11222 | 35427 ft | 504 kts | 356° |
| 2026-05-01 12:09 | -0.39298 | 104.10911 | 34549 ft | 506 kts | 356° |
| 2026-05-01 12:09 | -0.35890 | 104.10610 | 33624 ft | 511 kts | 356° |
| 2026-05-01 12:09 | -0.34533 | 104.10490 | 33458 ft | 513 kts | 356° |
| 2026-05-01 12:10 | -0.31009 | 104.10178 | 33202 ft | 513 kts | 356° |
| 2026-05-01 12:10 | -0.23952 | 104.09550 | 32374 ft | 507 kts | 356° |
| 2026-05-01 12:10 | -0.20437 | 104.09238 | 31773 ft | 507 kts | 356° |
| 2026-05-01 12:11 | -0.13364 | 104.08611 | 30598 ft | 511 kts | 356° |
| 2026-05-01 12:11 | -0.09812 | 104.08296 | 30029 ft | 514 kts | 356° |
| 2026-05-01 12:11 | -0.06241 | 104.07979 | 29379 ft | 515 kts | 356° |
| 2026-05-01 12:12 | -0.02723 | 104.07666 | 28735 ft | 513 kts | 356° |
| 2026-05-01 12:12 | 0.00820 | 104.07350 | 28104 ft | 508 kts | 356° |
| 2026-05-01 12:12 | 0.04326 | 104.07038 | 27486 ft | 504 kts | 356° |
| 2026-05-01 12:12 | 0.07806 | 104.06728 | 26880 ft | 499 kts | 356° |
| 2026-05-01 12:13 | 0.11255 | 104.06422 | 26287 ft | 494 kts | 356° |
| 2026-05-01 12:13 | 0.14667 | 104.06119 | 25708 ft | 489 kts | 356° |
| 2026-05-01 12:13 | 0.17993 | 104.05822 | 25137 ft | 466 kts | 356° |
| 2026-05-01 12:13 | 0.21132 | 104.05539 | 24604 ft | 441 kts | 357° |
| 2026-05-01 12:14 | 0.24100 | 104.05271 | 24308 ft | 413 kts | 357° |
| 2026-05-01 12:14 | 0.26860 | 104.04965 | 24109 ft | 387 kts | 353° |
| 2026-05-01 12:14 | 0.29468 | 104.04520 | 23904 ft | 375 kts | 352° |
| 2026-05-01 12:14 | 0.32028 | 104.04052 | 23537 ft | 372 kts | 352° |
| 2026-05-01 12:15 | 0.34538 | 104.03573 | 22866 ft | 370 kts | 352° |
| 2026-05-01 12:15 | 0.37056 | 104.03081 | 22164 ft | 367 kts | 351° |
| 2026-05-01 12:15 | 0.39549 | 104.02586 | 21475 ft | 363 kts | 351° |
| 2026-05-01 12:15 | 0.42016 | 104.02094 | 20807 ft | 359 kts | 351° |
| 2026-05-01 12:16 | 0.44455 | 104.01607 | 20152 ft | 355 kts | 351° |
| 2026-05-01 12:16 | 0.46857 | 104.01129 | 19513 ft | 351 kts | 351° |
| 2026-05-01 12:16 | 0.49236 | 104.00646 | 18884 ft | 347 kts | 351° |
| 2026-05-01 12:16 | 0.51591 | 104.00156 | 18050 ft | 346 kts | 351° |
| 2026-05-01 12:17 | 0.53965 | 103.99661 | 16923 ft | 349 kts | 351° |
| 2026-05-01 12:17 | 0.56348 | 103.99162 | 15825 ft | 351 kts | 350° |
| 2026-05-01 12:17 | 0.58742 | 103.98662 | 14773 ft | 351 kts | 350° |
| 2026-05-01 12:17 | 0.61123 | 103.98165 | 13918 ft | 346 kts | 350° |
| 2026-05-01 12:18 | 0.63429 | 103.97683 | 13362 ft | 330 kts | 350° |
| 2026-05-01 12:18 | 0.65611 | 103.97230 | 12627 ft | 322 kts | 350° |
| 2026-05-01 12:18 | 0.67765 | 103.96786 | 11821 ft | 317 kts | 351° |
| 2026-05-01 12:18 | 0.69918 | 103.96348 | 11026 ft | 313 kts | 350° |
| 2026-05-01 12:19 | 0.72048 | 103.95914 | 10252 ft | 310 kts | 350° |
| 2026-05-01 12:19 | 0.74111 | 103.95489 | 10017 ft | 302 kts | 350° |
| 2026-05-01 12:19 | 0.76169 | 103.95066 | 9665 ft | 301 kts | 350° |
| 2026-05-01 12:19 | 0.78217 | 103.94643 | 9284 ft | 300 kts | 349° |
| 2026-05-01 12:20 | 0.80259 | 103.94220 | 8946 ft | 299 kts | 349° |
| 2026-05-01 12:20 | 0.82291 | 103.93799 | 8622 ft | 297 kts | 349° |
| 2026-05-01 12:20 | 0.84310 | 103.93380 | 8299 ft | 295 kts | 349° |
| 2026-05-01 12:20 | 0.86309 | 103.93035 | 8009 ft | 294 kts | 353° |
| 2026-05-01 12:21 | 0.88336 | 103.92806 | 7548 ft | 292 kts | 354° |
| 2026-05-01 12:21 | 0.90348 | 103.92607 | 6760 ft | 291 kts | 355° |
| 2026-05-01 12:21 | 0.92379 | 103.92412 | 5753 ft | 296 kts | 355° |
| 2026-05-01 12:21 | 0.94435 | 103.92219 | 4713 ft | 298 kts | 355° |
| 2026-05-01 12:22 | 0.96497 | 103.92028 | 3852 ft | 294 kts | 355° |
| 2026-05-01 12:22 | 0.97824 | 103.91904 | 3505 ft | 283 kts | 355° |
| 2026-05-01 12:22 | 0.99720 | 103.91724 | 3250 ft | 264 kts | 355° |
| 2026-05-01 12:22 | 1.01476 | 103.91553 | 3045 ft | 243 kts | 355° |
| 2026-05-01 12:23 | 1.03130 | 103.91389 | 2841 ft | 236 kts | 355° |
| 2026-05-01 12:23 | 1.04761 | 103.91247 | 2641 ft | 235 kts | 358° |
| 2026-05-01 12:23 | 1.06391 | 103.91182 | 2526 ft | 234 kts | 359° |
| 2026-05-01 12:23 | 1.08029 | 103.91129 | 2516 ft | 235 kts | 359° |
| 2026-05-01 12:24 | 1.09649 | 103.91074 | 2519 ft | 234 kts | 359° |
| 2026-05-01 12:24 | 1.11279 | 103.91018 | 2519 ft | 234 kts | 359° |
| 2026-05-01 12:24 | 1.12891 | 103.90962 | 2515 ft | 234 kts | 359° |
| 2026-05-01 12:24 | 1.14515 | 103.90919 | 2506 ft | 233 kts | 2° |
| 2026-05-01 12:25 | 1.16081 | 103.91048 | 2518 ft | 233 kts | 6° |
| 2026-05-01 12:25 | 1.19212 | 103.91353 | 2513 ft | 222 kts | 10° |
| 2026-05-01 12:25 | 1.20635 | 103.91761 | 2525 ft | 204 kts | 22° |
| 2026-05-01 12:26 | 1.21899 | 103.92286 | 2540 ft | 189 kts | 24° |
| 2026-05-01 12:26 | 1.24290 | 103.93284 | 2287 ft | 188 kts | 24° |
| 2026-05-01 12:26 | 1.25489 | 103.93787 | 1996 ft | 184 kts | 24° |
| 2026-05-01 12:27 | 1.26644 | 103.94273 | 1742 ft | 174 kts | 24° |
| 2026-05-01 12:27 | 1.28621 | 103.95105 | 1330 ft | 149 kts | 24° |
| 2026-05-01 12:28 | 1.30413 | 103.95861 | 966 ft | 135 kts | 24° |
| 2026-05-01 12:28 | 1.31282 | 103.96229 | 808 ft | 136 kts | 24° |
| 2026-05-01 12:28 | 1.33034 | 103.96966 | 536 ft | 136 kts | 21° |
| 2026-05-01 12:29 | 1.33917 | 103.97332 | 324 ft | 138 kts | 21° |
| 2026-05-01 12:29 | 1.34800 | 103.97709 | 102 ft | 138 kts | 21° |
| 2026-05-01 12:29 | 1.36215 | 103.98306 | 30 ft | 46 kts | 23° |
| 2026-05-01 12:30 | 1.36521 | 103.98437 | 30 ft | 24 kts | 23° |
| 2026-05-01 12:30 | 1.36616 | 103.98481 | 30 ft | 0 kts | 25° |
| 2026-05-01 12:30 | 1.36619 | 103.98485 | 30 ft | 3 kts | 44° |
| 2026-05-01 12:31 | 1.36662 | 103.98529 | 30 ft | 14 kts | 49° |
| 2026-05-01 12:31 | 1.36731 | 103.98615 | 30 ft | 17 kts | 51° |
| 2026-05-01 12:31 | 1.36772 | 103.98667 | 30 ft | 0 kts | 51° |
| 2026-05-01 12:31 | 1.36773 | 103.98668 | 30 ft | 2 kts | 51° |
| 2026-05-01 12:32 | 1.36796 | 103.98699 | 30 ft | 9 kts | 53° |
| 2026-05-01 12:32 | 1.36796 | 103.98874 | 30 ft | 17 kts | 112° |
| 2026-05-01 12:32 | 1.36752 | 103.98984 | 30 ft | 19 kts | 112° |
| 2026-05-01 12:33 | 1.36694 | 103.99121 | 30 ft | 23 kts | 113° |
| 2026-05-01 12:33 | 1.36627 | 103.99278 | 30 ft | 26 kts | 113° |
| 2026-05-01 12:33 | 1.36553 | 103.99454 | 30 ft | 29 kts | 112° |
| 2026-05-01 12:33 | 1.36462 | 103.99606 | 30 ft | 8 kts | 160° |
| 2026-05-01 12:34 | 1.36448 | 103.99604 | 30 ft | 4 kts | 196° |
| 2026-05-01 12:34 | 1.36393 | 103.99580 | 30 ft | 12 kts | 213° |
| 2026-05-01 12:34 | 1.36319 | 103.99497 | 30 ft | 20 kts | 232° |
| 2026-05-01 12:34 | 1.36235 | 103.99400 | 30 ft | 14 kts | 253° |
| 2026-05-01 12:35 | 1.36251 | 103.99337 | 30 ft | 0 kts | 291° |